sensor_id;sensor_type;location;lat;lon;timestamp;P1;durP1;ratioP1;P2;durP2;ratioP2
20731;SDS011;10527;52.124;5.196;2022-12-07T00:01:44;4.50;;;1.80;;
20731;SDS011;10527;52.124;5.196;2022-12-07T00:04:13;5.33;;;1.97;;
20731;SDS011;10527;52.124;5.196;2022-12-07T00:06:46;3.63;;;1.87;;
20731;SDS011;10527;52.124;5.196;2022-12-07T00:09:18;6.23;;;1.80;;
20731;SDS011;10527;52.124;5.196;2022-12-07T00:11:48;3.73;;;1.77;;
20731;SDS011;10527;52.124;5.196;2022-12-07T00:14:17;5.80;;;2.23;;
20731;SDS011;10527;52.124;5.196;2022-12-07T00:16:45;2.43;;;1.43;;
20731;SDS011;10527;52.124;5.196;2022-12-07T00:19:15;4.53;;;1.63;;
20731;SDS011;10527;52.124;5.196;2022-12-07T00:21:42;5.37;;;2.00;;
20731;SDS011;10527;52.124;5.196;2022-12-07T00:24:09;4.67;;;1.77;;
20731;SDS011;10527;52.124;5.196;2022-12-07T00:26:38;3.00;;;1.43;;
20731;SDS011;10527;52.124;5.196;2022-12-07T00:29:08;3.77;;;1.27;;
20731;SDS011;10527;52.124;5.196;2022-12-07T00:31:42;5.73;;;1.67;;
20731;SDS011;10527;52.124;5.196;2022-12-07T00:34:12;5.67;;;1.53;;
20731;SDS011;10527;52.124;5.196;2022-12-07T00:37:01;4.93;;;1.67;;
20731;SDS011;10527;52.124;5.196;2022-12-07T00:39:28;2.67;;;1.23;;
20731;SDS011;10527;52.124;5.196;2022-12-07T00:41:55;3.30;;;1.40;;
20731;SDS011;10527;52.124;5.196;2022-12-07T00:44:22;3.67;;;1.60;;
20731;SDS011;10527;52.124;5.196;2022-12-07T00:46:48;4.83;;;1.80;;
20731;SDS011;10527;52.124;5.196;2022-12-07T00:49:15;2.90;;;1.47;;
20731;SDS011;10527;52.124;5.196;2022-12-07T00:51:43;2.80;;;1.63;;
20731;SDS011;10527;52.124;5.196;2022-12-07T00:54:10;4.63;;;1.30;;
20731;SDS011;10527;52.124;5.196;2022-12-07T00:56:37;3.13;;;1.50;;
20731;SDS011;10527;52.124;5.196;2022-12-07T00:59:04;4.27;;;1.70;;
20731;SDS011;10527;52.124;5.196;2022-12-07T01:01:31;3.57;;;1.50;;
20731;SDS011;10527;52.124;5.196;2022-12-07T01:04:02;3.50;;;1.47;;
20731;SDS011;10527;52.124;5.196;2022-12-07T01:06:29;2.97;;;1.23;;
20731;SDS011;10527;52.124;5.196;2022-12-07T01:08:57;2.90;;;1.50;;
20731;SDS011;10527;52.124;5.196;2022-12-07T01:11:26;2.83;;;1.53;;
20731;SDS011;10527;52.124;5.196;2022-12-07T01:13:56;3.87;;;1.20;;
20731;SDS011;10527;52.124;5.196;2022-12-07T01:16:26;3.67;;;1.37;;
20731;SDS011;10527;52.124;5.196;2022-12-07T01:18:55;4.43;;;1.23;;
20731;SDS011;10527;52.124;5.196;2022-12-07T01:21:24;4.17;;;1.60;;
20731;SDS011;10527;52.124;5.196;2022-12-07T01:23:56;3.70;;;1.23;;
20731;SDS011;10527;52.124;5.196;2022-12-07T01:26:24;3.43;;;1.10;;
20731;SDS011;10527;52.124;5.196;2022-12-07T01:28:52;2.30;;;1.40;;
20731;SDS011;10527;52.124;5.196;2022-12-07T01:31:21;5.70;;;1.40;;
20731;SDS011;10527;52.124;5.196;2022-12-07T01:33:52;4.77;;;1.33;;
20731;SDS011;10527;52.124;5.196;2022-12-07T01:36:24;2.60;;;1.07;;
20731;SDS011;10527;52.124;5.196;2022-12-07T01:39:02;2.43;;;1.20;;
20731;SDS011;10527;52.124;5.196;2022-12-07T01:41:33;3.03;;;1.27;;
20731;SDS011;10527;52.124;5.196;2022-12-07T01:44:22;1.53;;;0.93;;
20731;SDS011;10527;52.124;5.196;2022-12-07T01:47:02;2.37;;;1.10;;
20731;SDS011;10527;52.124;5.196;2022-12-07T01:49:34;3.23;;;1.10;;
20731;SDS011;10527;52.124;5.196;2022-12-07T01:52:16;2.37;;;1.20;;
20731;SDS011;10527;52.124;5.196;2022-12-07T01:55:04;3.37;;;1.30;;
20731;SDS011;10527;52.124;5.196;2022-12-07T01:57:48;2.67;;;1.03;;
20731;SDS011;10527;52.124;5.196;2022-12-07T02:00:18;2.10;;;1.10;;
20731;SDS011;10527;52.124;5.196;2022-12-07T02:02:57;5.93;;;1.47;;
20731;SDS011;10527;52.124;5.196;2022-12-07T02:05:29;1.73;;;1.00;;
20731;SDS011;10527;52.124;5.196;2022-12-07T02:07:58;5.80;;;1.80;;
20731;SDS011;10527;52.124;5.196;2022-12-07T02:10:27;2.83;;;1.43;;
20731;SDS011;10527;52.124;5.196;2022-12-07T02:13:00;4.47;;;1.33;;
20731;SDS011;10527;52.124;5.196;2022-12-07T02:21:59;2.60;;;1.03;;
20731;SDS011;10527;52.124;5.196;2022-12-07T02:27:46;5.03;;;1.60;;
20731;SDS011;10527;52.124;5.196;2022-12-07T02:30:22;3.13;;;1.30;;
20731;SDS011;10527;52.124;5.196;2022-12-07T02:33:04;2.17;;;1.30;;
20731;SDS011;10527;52.124;5.196;2022-12-07T02:35:44;3.70;;;1.23;;
20731;SDS011;10527;52.124;5.196;2022-12-07T02:38:19;5.67;;;1.50;;
20731;SDS011;10527;52.124;5.196;2022-12-07T02:41:40;2.53;;;1.03;;
20731;SDS011;10527;52.124;5.196;2022-12-07T02:44:17;3.47;;;1.13;;
20731;SDS011;10527;52.124;5.196;2022-12-07T02:46:54;3.53;;;1.00;;
20731;SDS011;10527;52.124;5.196;2022-12-07T02:49:27;1.33;;;0.93;;
20731;SDS011;10527;52.124;5.196;2022-12-07T02:52:02;2.27;;;1.13;;
20731;SDS011;10527;52.124;5.196;2022-12-07T02:54:30;3.33;;;1.10;;
20731;SDS011;10527;52.124;5.196;2022-12-07T03:00:09;4.03;;;1.30;;
20731;SDS011;10527;52.124;5.196;2022-12-07T03:02:46;2.80;;;1.07;;
20731;SDS011;10527;52.124;5.196;2022-12-07T03:08:57;3.73;;;1.10;;
20731;SDS011;10527;52.124;5.196;2022-12-07T03:11:41;4.13;;;0.97;;
20731;SDS011;10527;52.124;5.196;2022-12-07T03:14:37;2.67;;;1.20;;
20731;SDS011;10527;52.124;5.196;2022-12-07T03:17:14;3.13;;;1.20;;
20731;SDS011;10527;52.124;5.196;2022-12-07T03:19:48;5.23;;;1.30;;
20731;SDS011;10527;52.124;5.196;2022-12-07T03:22:22;2.20;;;1.00;;
20731;SDS011;10527;52.124;5.196;2022-12-07T03:24:55;2.97;;;0.90;;
20731;SDS011;10527;52.124;5.196;2022-12-07T03:27:28;3.00;;;1.13;;
20731;SDS011;10527;52.124;5.196;2022-12-07T03:30:04;2.90;;;1.03;;
20731;SDS011;10527;52.124;5.196;2022-12-07T03:33:07;2.63;;;1.07;;
20731;SDS011;10527;52.124;5.196;2022-12-07T03:35:50;5.03;;;1.23;;
20731;SDS011;10527;52.124;5.196;2022-12-07T03:38:32;2.53;;;0.83;;
20731;SDS011;10527;52.124;5.196;2022-12-07T03:43:55;1.30;;;0.73;;
20731;SDS011;10527;52.124;5.196;2022-12-07T03:46:35;3.27;;;0.80;;
20731;SDS011;10527;52.124;5.196;2022-12-07T03:55:00;2.87;;;0.80;;
20731;SDS011;10527;52.124;5.196;2022-12-07T03:57:43;2.47;;;0.90;;
20731;SDS011;10527;52.124;5.196;2022-12-07T04:00:14;2.27;;;0.90;;
20731;SDS011;10527;52.124;5.196;2022-12-07T04:02:42;1.67;;;0.83;;
20731;SDS011;10527;52.124;5.196;2022-12-07T04:05:09;1.70;;;0.90;;
20731;SDS011;10527;52.124;5.196;2022-12-07T04:07:37;2.47;;;0.93;;
20731;SDS011;10527;52.124;5.196;2022-12-07T04:10:04;2.93;;;1.00;;
20731;SDS011;10527;52.124;5.196;2022-12-07T04:12:31;4.10;;;0.87;;
20731;SDS011;10527;52.124;5.196;2022-12-07T04:14:58;1.53;;;0.80;;
20731;SDS011;10527;52.124;5.196;2022-12-07T04:17:25;1.50;;;0.80;;
20731;SDS011;10527;52.124;5.196;2022-12-07T04:19:52;1.43;;;0.73;;
20731;SDS011;10527;52.124;5.196;2022-12-07T04:22:21;2.20;;;0.80;;
20731;SDS011;10527;52.124;5.196;2022-12-07T04:24:48;4.77;;;1.00;;
20731;SDS011;10527;52.124;5.196;2022-12-07T04:27:15;3.90;;;0.90;;
20731;SDS011;10527;52.124;5.196;2022-12-07T04:29:42;3.03;;;0.77;;
20731;SDS011;10527;52.124;5.196;2022-12-07T04:32:10;3.00;;;0.73;;
20731;SDS011;10527;52.124;5.196;2022-12-07T04:34:38;2.27;;;0.83;;
20731;SDS011;10527;52.124;5.196;2022-12-07T04:37:04;2.13;;;0.70;;
20731;SDS011;10527;52.124;5.196;2022-12-07T04:39:32;5.50;;;1.10;;
20731;SDS011;10527;52.124;5.196;2022-12-07T04:42:00;5.77;;;1.00;;
20731;SDS011;10527;52.124;5.196;2022-12-07T04:44:28;4.10;;;1.20;;
20731;SDS011;10527;52.124;5.196;2022-12-07T04:46:56;5.33;;;1.10;;
20731;SDS011;10527;52.124;5.196;2022-12-07T04:49:24;2.60;;;0.83;;
20731;SDS011;10527;52.124;5.196;2022-12-07T04:51:51;1.77;;;0.70;;
20731;SDS011;10527;52.124;5.196;2022-12-07T04:54:18;4.93;;;2.00;;
20731;SDS011;10527;52.124;5.196;2022-12-07T04:56:46;3.73;;;0.97;;
20731;SDS011;10527;52.124;5.196;2022-12-07T04:59:15;4.53;;;0.97;;
20731;SDS011;10527;52.124;5.196;2022-12-07T05:01:43;2.17;;;1.00;;
20731;SDS011;10527;52.124;5.196;2022-12-07T05:04:10;3.60;;;1.23;;
20731;SDS011;10527;52.124;5.196;2022-12-07T05:06:38;3.43;;;1.17;;
20731;SDS011;10527;52.124;5.196;2022-12-07T05:09:05;3.00;;;1.03;;
20731;SDS011;10527;52.124;5.196;2022-12-07T05:11:32;2.80;;;0.80;;
20731;SDS011;10527;52.124;5.196;2022-12-07T05:14:15;1.73;;;0.80;;
20731;SDS011;10527;52.124;5.196;2022-12-07T05:16:46;2.53;;;0.80;;
20731;SDS011;10527;52.124;5.196;2022-12-07T05:19:18;1.07;;;0.83;;
20731;SDS011;10527;52.124;5.196;2022-12-07T05:21:45;1.30;;;0.90;;
20731;SDS011;10527;52.124;5.196;2022-12-07T05:24:13;2.47;;;1.00;;
20731;SDS011;10527;52.124;5.196;2022-12-07T05:26:43;1.57;;;0.90;;
20731;SDS011;10527;52.124;5.196;2022-12-07T05:29:11;0.70;;;0.60;;
20731;SDS011;10527;52.124;5.196;2022-12-07T05:31:40;3.73;;;1.33;;
20731;SDS011;10527;52.124;5.196;2022-12-07T05:34:07;1.77;;;0.80;;
20731;SDS011;10527;52.124;5.196;2022-12-07T05:36:35;4.10;;;0.90;;
20731;SDS011;10527;52.124;5.196;2022-12-07T05:39:02;2.10;;;0.87;;
20731;SDS011;10527;52.124;5.196;2022-12-07T05:41:29;4.53;;;0.83;;
20731;SDS011;10527;52.124;5.196;2022-12-07T05:44:14;1.37;;;0.97;;
20731;SDS011;10527;52.124;5.196;2022-12-07T05:46:42;1.60;;;0.90;;
20731;SDS011;10527;52.124;5.196;2022-12-07T05:49:09;2.90;;;0.80;;
20731;SDS011;10527;52.124;5.196;2022-12-07T05:51:35;1.43;;;0.80;;
20731;SDS011;10527;52.124;5.196;2022-12-07T05:54:02;1.53;;;0.70;;
20731;SDS011;10527;52.124;5.196;2022-12-07T05:56:32;2.23;;;0.80;;
20731;SDS011;10527;52.124;5.196;2022-12-07T05:58:59;3.70;;;0.90;;
20731;SDS011;10527;52.124;5.196;2022-12-07T06:01:44;3.37;;;1.10;;
20731;SDS011;10527;52.124;5.196;2022-12-07T06:04:11;3.67;;;1.00;;
20731;SDS011;10527;52.124;5.196;2022-12-07T06:06:38;2.63;;;0.90;;
20731;SDS011;10527;52.124;5.196;2022-12-07T06:09:05;1.90;;;0.80;;
20731;SDS011;10527;52.124;5.196;2022-12-07T06:11:32;3.77;;;1.30;;
20731;SDS011;10527;52.124;5.196;2022-12-07T06:14:18;1.53;;;0.73;;
20731;SDS011;10527;52.124;5.196;2022-12-07T06:16:45;2.20;;;0.97;;
20731;SDS011;10527;52.124;5.196;2022-12-07T06:19:12;3.13;;;0.90;;
20731;SDS011;10527;52.124;5.196;2022-12-07T06:21:39;3.10;;;1.27;;
20731;SDS011;10527;52.124;5.196;2022-12-07T06:24:14;1.37;;;1.13;;
20731;SDS011;10527;52.124;5.196;2022-12-07T06:26:43;3.23;;;1.70;;
20731;SDS011;10527;52.124;5.196;2022-12-07T06:29:12;6.80;;;2.80;;
20731;SDS011;10527;52.124;5.196;2022-12-07T06:31:39;6.60;;;3.27;;
20731;SDS011;10527;52.124;5.196;2022-12-07T06:34:12;5.63;;;3.43;;
20731;SDS011;10527;52.124;5.196;2022-12-07T06:36:42;5.83;;;3.17;;
20731;SDS011;10527;52.124;5.196;2022-12-07T06:39:10;5.10;;;3.13;;
20731;SDS011;10527;52.124;5.196;2022-12-07T06:41:37;7.07;;;2.47;;
20731;SDS011;10527;52.124;5.196;2022-12-07T06:44:05;4.50;;;2.23;;
20731;SDS011;10527;52.124;5.196;2022-12-07T06:46:42;6.57;;;2.27;;
20731;SDS011;10527;52.124;5.196;2022-12-07T06:49:08;3.27;;;1.77;;
20731;SDS011;10527;52.124;5.196;2022-12-07T06:51:38;2.97;;;1.60;;
20731;SDS011;10527;52.124;5.196;2022-12-07T06:54:11;5.20;;;1.40;;
20731;SDS011;10527;52.124;5.196;2022-12-07T06:56:39;3.83;;;1.60;;
20731;SDS011;10527;52.124;5.196;2022-12-07T06:59:07;2.90;;;1.43;;
20731;SDS011;10527;52.124;5.196;2022-12-07T07:01:36;4.67;;;1.60;;
20731;SDS011;10527;52.124;5.196;2022-12-07T07:04:03;1.83;;;1.40;;
20731;SDS011;10527;52.124;5.196;2022-12-07T07:06:30;2.97;;;2.23;;
20731;SDS011;10527;52.124;5.196;2022-12-07T07:08:57;4.60;;;2.30;;
20731;SDS011;10527;52.124;5.196;2022-12-07T07:11:35;3.40;;;1.20;;
20731;SDS011;10527;52.124;5.196;2022-12-07T07:14:01;3.90;;;1.20;;
20731;SDS011;10527;52.124;5.196;2022-12-07T07:16:30;2.00;;;1.20;;
20731;SDS011;10527;52.124;5.196;2022-12-07T07:18:57;3.80;;;1.47;;
20731;SDS011;10527;52.124;5.196;2022-12-07T07:21:32;3.27;;;1.50;;
20731;SDS011;10527;52.124;5.196;2022-12-07T07:24:00;2.27;;;1.33;;
20731;SDS011;10527;52.124;5.196;2022-12-07T07:26:26;4.50;;;1.20;;
20731;SDS011;10527;52.124;5.196;2022-12-07T07:28:53;4.27;;;1.10;;
20731;SDS011;10527;52.124;5.196;2022-12-07T07:31:20;2.90;;;1.30;;
20731;SDS011;10527;52.124;5.196;2022-12-07T07:33:47;3.10;;;1.30;;
20731;SDS011;10527;52.124;5.196;2022-12-07T07:36:13;5.13;;;2.00;;
20731;SDS011;10527;52.124;5.196;2022-12-07T07:38:40;6.30;;;2.50;;
20731;SDS011;10527;52.124;5.196;2022-12-07T07:41:07;7.30;;;2.50;;
20731;SDS011;10527;52.124;5.196;2022-12-07T07:43:34;6.97;;;2.27;;
20731;SDS011;10527;52.124;5.196;2022-12-07T07:46:00;6.30;;;2.47;;
20731;SDS011;10527;52.124;5.196;2022-12-07T07:48:27;3.33;;;2.20;;
20731;SDS011;10527;52.124;5.196;2022-12-07T07:50:54;5.93;;;2.35;;
20731;SDS011;10527;52.124;5.196;2022-12-07T07:53:21;5.37;;;2.10;;
20731;SDS011;10527;52.124;5.196;2022-12-07T07:55:52;3.00;;;1.60;;
20731;SDS011;10527;52.124;5.196;2022-12-07T07:58:20;4.57;;;1.90;;
20731;SDS011;10527;52.124;5.196;2022-12-07T08:00:47;3.10;;;1.23;;
20731;SDS011;10527;52.124;5.196;2022-12-07T08:03:14;3.40;;;1.40;;
20731;SDS011;10527;52.124;5.196;2022-12-07T08:05:43;3.77;;;1.43;;
20731;SDS011;10527;52.124;5.196;2022-12-07T08:08:10;3.90;;;2.00;;
20731;SDS011;10527;52.124;5.196;2022-12-07T08:10:37;6.30;;;2.10;;
20731;SDS011;10527;52.124;5.196;2022-12-07T08:13:04;4.30;;;1.97;;
20731;SDS011;10527;52.124;5.196;2022-12-07T08:15:38;6.30;;;2.45;;
20731;SDS011;10527;52.124;5.196;2022-12-07T08:18:07;4.13;;;1.80;;
20731;SDS011;10527;52.124;5.196;2022-12-07T08:20:34;4.30;;;2.67;;
20731;SDS011;10527;52.124;5.196;2022-12-07T08:23:03;1.83;;;1.63;;
20731;SDS011;10527;52.124;5.196;2022-12-07T08:25:32;3.50;;;1.90;;
20731;SDS011;10527;52.124;5.196;2022-12-07T08:28:00;9.23;;;2.53;;
20731;SDS011;10527;52.124;5.196;2022-12-07T08:30:28;5.60;;;2.50;;
20731;SDS011;10527;52.124;5.196;2022-12-07T08:32:55;4.17;;;1.90;;
20731;SDS011;10527;52.124;5.196;2022-12-07T08:35:24;6.57;;;1.70;;
20731;SDS011;10527;52.124;5.196;2022-12-07T08:37:52;4.40;;;1.43;;
20731;SDS011;10527;52.124;5.196;2022-12-07T08:40:21;4.30;;;1.50;;
20731;SDS011;10527;52.124;5.196;2022-12-07T08:42:48;5.47;;;1.33;;
20731;SDS011;10527;52.124;5.196;2022-12-07T08:45:16;4.37;;;1.60;;
20731;SDS011;10527;52.124;5.196;2022-12-07T08:48:01;2.70;;;1.20;;
20731;SDS011;10527;52.124;5.196;2022-12-07T08:50:32;5.05;;;2.20;;
20731;SDS011;10527;52.124;5.196;2022-12-07T08:53:02;4.73;;;1.50;;
20731;SDS011;10527;52.124;5.196;2022-12-07T08:55:31;3.38;;;1.42;;
20731;SDS011;10527;52.124;5.196;2022-12-07T08:58:00;5.40;;;1.60;;
20731;SDS011;10527;52.124;5.196;2022-12-07T09:00:29;4.37;;;1.43;;
20731;SDS011;10527;52.124;5.196;2022-12-07T09:02:56;4.77;;;1.17;;
20731;SDS011;10527;52.124;5.196;2022-12-07T09:05:22;4.10;;;1.60;;
20731;SDS011;10527;52.124;5.196;2022-12-07T09:07:51;6.03;;;1.67;;
20731;SDS011;10527;52.124;5.196;2022-12-07T09:10:26;2.03;;;1.23;;
20731;SDS011;10527;52.124;5.196;2022-12-07T09:12:54;4.77;;;1.40;;
20731;SDS011;10527;52.124;5.196;2022-12-07T09:15:21;5.00;;;1.43;;
20731;SDS011;10527;52.124;5.196;2022-12-07T09:17:47;7.60;;;1.30;;
20731;SDS011;10527;52.124;5.196;2022-12-07T09:20:14;2.63;;;1.07;;
20731;SDS011;10527;52.124;5.196;2022-12-07T09:22:41;5.23;;;1.37;;
20731;SDS011;10527;52.124;5.196;2022-12-07T09:25:08;3.50;;;1.43;;
20731;SDS011;10527;52.124;5.196;2022-12-07T09:27:35;3.50;;;1.90;;
20731;SDS011;10527;52.124;5.196;2022-12-07T09:30:02;2.57;;;1.50;;
20731;SDS011;10527;52.124;5.196;2022-12-07T09:32:33;7.00;;;2.37;;
20731;SDS011;10527;52.124;5.196;2022-12-07T09:35:00;6.77;;;1.50;;
20731;SDS011;10527;52.124;5.196;2022-12-07T09:37:27;3.40;;;1.30;;
20731;SDS011;10527;52.124;5.196;2022-12-07T09:39:54;3.83;;;1.40;;
20731;SDS011;10527;52.124;5.196;2022-12-07T09:42:34;3.13;;;1.47;;
20731;SDS011;10527;52.124;5.196;2022-12-07T09:45:21;2.63;;;1.33;;
20731;SDS011;10527;52.124;5.196;2022-12-07T09:47:57;5.53;;;1.43;;
20731;SDS011;10527;52.124;5.196;2022-12-07T09:50:30;2.53;;;0.93;;
20731;SDS011;10527;52.124;5.196;2022-12-07T09:53:06;3.67;;;1.10;;
20731;SDS011;10527;52.124;5.196;2022-12-07T09:55:41;5.50;;;1.40;;
20731;SDS011;10527;52.124;5.196;2022-12-07T09:58:44;5.20;;;1.00;;
20731;SDS011;10527;52.124;5.196;2022-12-07T10:03:37;2.77;;;0.87;;
20731;SDS011;10527;52.124;5.196;2022-12-07T10:06:09;15.03;;;8.00;;
20731;SDS011;10527;52.124;5.196;2022-12-07T10:08:38;10.93;;;4.70;;
20731;SDS011;10527;52.124;5.196;2022-12-07T10:11:07;5.13;;;2.23;;
20731;SDS011;10527;52.124;5.196;2022-12-07T10:13:38;3.50;;;1.70;;
20731;SDS011;10527;52.124;5.196;2022-12-07T10:16:25;2.40;;;1.30;;
20731;SDS011;10527;52.124;5.196;2022-12-07T10:19:18;1.93;;;1.10;;
20731;SDS011;10527;52.124;5.196;2022-12-07T10:22:15;3.43;;;1.27;;
20731;SDS011;10527;52.124;5.196;2022-12-07T10:24:43;2.77;;;0.90;;
20731;SDS011;10527;52.124;5.196;2022-12-07T10:27:17;3.73;;;1.23;;
20731;SDS011;10527;52.124;5.196;2022-12-07T10:29:55;4.27;;;1.07;;
20731;SDS011;10527;52.124;5.196;2022-12-07T10:32:32;2.97;;;0.80;;
20731;SDS011;10527;52.124;5.196;2022-12-07T10:37:59;3.30;;;1.10;;
20731;SDS011;10527;52.124;5.196;2022-12-07T10:40:34;2.30;;;0.80;;
20731;SDS011;10527;52.124;5.196;2022-12-07T10:54:46;6.65;;;1.65;;
20731;SDS011;10527;52.124;5.196;2022-12-07T11:00:40;2.63;;;0.90;;
20731;SDS011;10527;52.124;5.196;2022-12-07T11:06:42;4.45;;;1.30;;
20731;SDS011;10527;52.124;5.196;2022-12-07T11:09:25;4.00;;;0.97;;
20731;SDS011;10527;52.124;5.196;2022-12-07T11:12:45;2.87;;;0.90;;
20731;SDS011;10527;52.124;5.196;2022-12-07T11:24:27;2.23;;;0.70;;
20731;SDS011;10527;52.124;5.196;2022-12-07T11:27:35;2.40;;;1.10;;
20731;SDS011;10527;52.124;5.196;2022-12-07T11:30:23;10.80;;;6.60;;
20731;SDS011;10527;52.124;5.196;2022-12-07T11:33:28;5.93;;;2.70;;
20731;SDS011;10527;52.124;5.196;2022-12-07T11:36:35;4.90;;;1.60;;
20731;SDS011;10527;52.124;5.196;2022-12-07T11:42:16;4.20;;;0.90;;
20731;SDS011;10527;52.124;5.196;2022-12-07T11:47:30;2.53;;;1.00;;
20731;SDS011;10527;52.124;5.196;2022-12-07T11:50:26;3.03;;;1.00;;
20731;SDS011;10527;52.124;5.196;2022-12-07T12:01:18;4.60;;;1.53;;
20731;SDS011;10527;52.124;5.196;2022-12-07T12:06:43;3.43;;;0.83;;
20731;SDS011;10527;52.124;5.196;2022-12-07T12:09:12;3.87;;;1.00;;
20731;SDS011;10527;52.124;5.196;2022-12-07T12:21:20;4.40;;;1.70;;
20731;SDS011;10527;52.124;5.196;2022-12-07T12:26:33;5.40;;;1.27;;
20731;SDS011;10527;52.124;5.196;2022-12-07T12:29:04;3.00;;;1.03;;
20731;SDS011;10527;52.124;5.196;2022-12-07T12:31:47;4.47;;;1.07;;
20731;SDS011;10527;52.124;5.196;2022-12-07T12:34:37;3.50;;;0.80;;
20731;SDS011;10527;52.124;5.196;2022-12-07T12:42:45;6.70;;;2.00;;
20731;SDS011;10527;52.124;5.196;2022-12-07T12:45:19;13.63;;;1.97;;
20731;SDS011;10527;52.124;5.196;2022-12-07T12:50:59;4.50;;;1.93;;
20731;SDS011;10527;52.124;5.196;2022-12-07T12:54:05;3.03;;;0.87;;
20731;SDS011;10527;52.124;5.196;2022-12-07T12:59:31;9.60;;;1.50;;
20731;SDS011;10527;52.124;5.196;2022-12-07T13:02:38;5.83;;;1.00;;
20731;SDS011;10527;52.124;5.196;2022-12-07T13:05:23;5.33;;;1.13;;
20731;SDS011;10527;52.124;5.196;2022-12-07T13:08:01;4.90;;;1.00;;
20731;SDS011;10527;52.124;5.196;2022-12-07T13:10:42;11.07;;;2.77;;
20731;SDS011;10527;52.124;5.196;2022-12-07T13:18:41;5.23;;;1.20;;
20731;SDS011;10527;52.124;5.196;2022-12-07T13:26:21;5.67;;;1.10;;
20731;SDS011;10527;52.124;5.196;2022-12-07T13:40:20;16.43;;;6.17;;
20731;SDS011;10527;52.124;5.196;2022-12-07T13:42:56;28.60;;;13.23;;
20731;SDS011;10527;52.124;5.196;2022-12-07T13:45:32;20.97;;;10.77;;
20731;SDS011;10527;52.124;5.196;2022-12-07T13:48:32;18.43;;;7.80;;
20731;SDS011;10527;52.124;5.196;2022-12-07T13:51:23;5.10;;;2.60;;
20731;SDS011;10527;52.124;5.196;2022-12-07T13:53:55;7.33;;;2.33;;
20731;SDS011;10527;52.124;5.196;2022-12-07T13:56:35;4.13;;;1.50;;
20731;SDS011;10527;52.124;5.196;2022-12-07T13:59:02;3.67;;;1.47;;
20731;SDS011;10527;52.124;5.196;2022-12-07T14:01:37;4.77;;;1.70;;
20731;SDS011;10527;52.124;5.196;2022-12-07T14:07:24;4.70;;;1.07;;
20731;SDS011;10527;52.124;5.196;2022-12-07T14:10:01;2.77;;;0.77;;
20731;SDS011;10527;52.124;5.196;2022-12-07T14:12:32;3.43;;;0.97;;
20731;SDS011;10527;52.124;5.196;2022-12-07T14:15:03;1.40;;;0.60;;
20731;SDS011;10527;52.124;5.196;2022-12-07T14:17:32;1.60;;;0.70;;
20731;SDS011;10527;52.124;5.196;2022-12-07T14:19:59;3.47;;;0.90;;
20731;SDS011;10527;52.124;5.196;2022-12-07T14:22:54;1.17;;;0.70;;
20731;SDS011;10527;52.124;5.196;2022-12-07T14:25:22;3.23;;;1.00;;
20731;SDS011;10527;52.124;5.196;2022-12-07T14:27:54;2.90;;;0.90;;
20731;SDS011;10527;52.124;5.196;2022-12-07T14:30:25;2.53;;;0.73;;
20731;SDS011;10527;52.124;5.196;2022-12-07T14:32:59;4.40;;;1.97;;
20731;SDS011;10527;52.124;5.196;2022-12-07T14:35:30;4.00;;;1.77;;
20731;SDS011;10527;52.124;5.196;2022-12-07T14:37:58;4.30;;;1.57;;
20731;SDS011;10527;52.124;5.196;2022-12-07T14:40:26;2.40;;;0.90;;
20731;SDS011;10527;52.124;5.196;2022-12-07T14:43:02;1.93;;;0.90;;
20731;SDS011;10527;52.124;5.196;2022-12-07T14:48:06;2.77;;;0.83;;
20731;SDS011;10527;52.124;5.196;2022-12-07T14:50:59;1.43;;;1.00;;
20731;SDS011;10527;52.124;5.196;2022-12-07T14:53:47;2.87;;;1.10;;
20731;SDS011;10527;52.124;5.196;2022-12-07T14:56:22;5.32;;;1.45;;
20731;SDS011;10527;52.124;5.196;2022-12-07T14:58:53;13.70;;;7.30;;
20731;SDS011;10527;52.124;5.196;2022-12-07T15:01:26;5.53;;;3.53;;
20731;SDS011;10527;52.124;5.196;2022-12-07T15:03:53;4.47;;;2.37;;
20731;SDS011;10527;52.124;5.196;2022-12-07T15:06:20;3.40;;;1.20;;
20731;SDS011;10527;52.124;5.196;2022-12-07T15:08:47;7.70;;;1.40;;
20731;SDS011;10527;52.124;5.196;2022-12-07T15:11:15;2.83;;;1.50;;
20731;SDS011;10527;52.124;5.196;2022-12-07T15:13:44;2.60;;;1.10;;
20731;SDS011;10527;52.124;5.196;2022-12-07T15:16:29;2.70;;;0.90;;
20731;SDS011;10527;52.124;5.196;2022-12-07T15:19:18;3.70;;;0.80;;
20731;SDS011;10527;52.124;5.196;2022-12-07T15:21:55;4.90;;;0.70;;
20731;SDS011;10527;52.124;5.196;2022-12-07T15:24:26;2.47;;;0.87;;
20731;SDS011;10527;52.124;5.196;2022-12-07T15:26:53;3.97;;;1.37;;
20731;SDS011;10527;52.124;5.196;2022-12-07T15:29:20;3.83;;;1.13;;
20731;SDS011;10527;52.124;5.196;2022-12-07T15:31:52;3.13;;;1.00;;
20731;SDS011;10527;52.124;5.196;2022-12-07T15:34:25;3.87;;;1.00;;
20731;SDS011;10527;52.124;5.196;2022-12-07T15:37:01;2.43;;;1.20;;
20731;SDS011;10527;52.124;5.196;2022-12-07T15:39:28;3.60;;;2.07;;
20731;SDS011;10527;52.124;5.196;2022-12-07T15:41:54;3.83;;;1.33;;
20731;SDS011;10527;52.124;5.196;2022-12-07T15:44:21;4.40;;;1.60;;
20731;SDS011;10527;52.124;5.196;2022-12-07T15:47:06;6.13;;;2.77;;
20731;SDS011;10527;52.124;5.196;2022-12-07T15:49:33;5.47;;;1.93;;
20731;SDS011;10527;52.124;5.196;2022-12-07T15:52:02;2.90;;;1.23;;
20731;SDS011;10527;52.124;5.196;2022-12-07T15:54:29;3.60;;;2.07;;
20731;SDS011;10527;52.124;5.196;2022-12-07T15:56:58;3.63;;;1.20;;
20731;SDS011;10527;52.124;5.196;2022-12-07T15:59:25;3.83;;;1.27;;
20731;SDS011;10527;52.124;5.196;2022-12-07T16:01:54;6.67;;;2.27;;
20731;SDS011;10527;52.124;5.196;2022-12-07T16:04:22;4.43;;;1.67;;
20731;SDS011;10527;52.124;5.196;2022-12-07T16:06:51;5.40;;;1.80;;
20731;SDS011;10527;52.124;5.196;2022-12-07T16:09:18;3.37;;;1.70;;
20731;SDS011;10527;52.124;5.196;2022-12-07T16:11:46;3.67;;;1.80;;
20731;SDS011;10527;52.124;5.196;2022-12-07T16:14:13;3.10;;;1.50;;
20731;SDS011;10527;52.124;5.196;2022-12-07T16:16:40;4.70;;;1.67;;
20731;SDS011;10527;52.124;5.196;2022-12-07T16:19:08;2.50;;;1.00;;
20731;SDS011;10527;52.124;5.196;2022-12-07T16:21:35;4.97;;;1.40;;
20731;SDS011;10527;52.124;5.196;2022-12-07T16:24:02;3.40;;;1.13;;
20731;SDS011;10527;52.124;5.196;2022-12-07T16:26:31;3.10;;;1.10;;
20731;SDS011;10527;52.124;5.196;2022-12-07T16:29:00;2.90;;;1.20;;
20731;SDS011;10527;52.124;5.196;2022-12-07T16:31:31;1.77;;;1.00;;
20731;SDS011;10527;52.124;5.196;2022-12-07T16:34:05;4.77;;;1.07;;
20731;SDS011;10527;52.124;5.196;2022-12-07T16:36:33;3.60;;;1.27;;
20731;SDS011;10527;52.124;5.196;2022-12-07T16:39:20;2.03;;;0.90;;
20731;SDS011;10527;52.124;5.196;2022-12-07T16:41:47;3.90;;;1.20;;
20731;SDS011;10527;52.124;5.196;2022-12-07T16:44:13;3.33;;;1.20;;
20731;SDS011;10527;52.124;5.196;2022-12-07T16:46:40;4.50;;;1.23;;
20731;SDS011;10527;52.124;5.196;2022-12-07T16:49:12;3.23;;;1.23;;
20731;SDS011;10527;52.124;5.196;2022-12-07T16:51:40;4.30;;;1.20;;
20731;SDS011;10527;52.124;5.196;2022-12-07T16:54:28;4.40;;;1.37;;
20731;SDS011;10527;52.124;5.196;2022-12-07T16:56:58;3.87;;;1.40;;
20731;SDS011;10527;52.124;5.196;2022-12-07T16:59:25;3.33;;;1.37;;
20731;SDS011;10527;52.124;5.196;2022-12-07T17:01:52;4.97;;;1.40;;
20731;SDS011;10527;52.124;5.196;2022-12-07T17:04:18;3.07;;;1.40;;
20731;SDS011;10527;52.124;5.196;2022-12-07T17:06:45;3.93;;;1.60;;
20731;SDS011;10527;52.124;5.196;2022-12-07T17:09:15;2.97;;;1.30;;
20731;SDS011;10527;52.124;5.196;2022-12-07T17:11:46;4.60;;;1.40;;
20731;SDS011;10527;52.124;5.196;2022-12-07T17:14:14;4.57;;;1.50;;
20731;SDS011;10527;52.124;5.196;2022-12-07T17:16:59;5.17;;;1.30;;
20731;SDS011;10527;52.124;5.196;2022-12-07T17:19:27;5.33;;;1.20;;
20731;SDS011;10527;52.124;5.196;2022-12-07T17:21:54;3.03;;;1.40;;
20731;SDS011;10527;52.124;5.196;2022-12-07T17:24:21;5.23;;;1.80;;
20731;SDS011;10527;52.124;5.196;2022-12-07T17:26:48;4.33;;;2.30;;